Airfield :
LOGIN :

Register | Disclaimer

   EN    FR    IT 

 










Legend :    VFR   Marginal VFR   IFR   Intensive IFR   Very Intensive IFR
Visi :
Ceiling :
>= 8 km
>= 3000ft
5 to 8 km
1000 to 3000 ft
1500m to 5 km
500 to 1000 ft
800 to 1500m
200 to 500 ft
< 800m
< 200 ft
Symbols :   Thunderstorms  Fog  Heavy snow  Heavy precipitations  Wind > 20 kt
SIGMETs :     Misc.  Thunderstorms  Icing  Turbulence  Mountain Waves  Volcanic Ashes







- Airport Elevation : 17 ft
- IATA code : GRQ


EHGG - Groningen Eelde

CURRENT METAR :
  • 201625Z AUTO 18003KT 7000 BKN009 OVC010 03/02 Q1000 TEMPO 8000 BKN010

EXPIRED METARs :
  • 201555Z AUTO 15003KT 120V180 7000 FEW007 OVC011 03/02 Q1000 TEMPO 8000
  • 201525Z AUTO 18004KT 8000 SCT008/// BKN009/// OVC011/// 03/02 Q1000 TEMPO 7000
  • 201455Z AUTO 18005KT 140V220 7000 SCT007 OVC008 03/02 Q1000 NOSIG
  • 201425Z AUTO 18006KT 140V210 8000 SCT007 OVC008 03/02 Q1000 NOSIG
  • 201355Z AUTO 20006KT 170V230 7000 OVC006 03/02 Q1000 NOSIG
  • 201325Z AUTO 20008KT 160V230 7000 BKN006 OVC007 02/01 Q1000 NOSIG

TAF TAF EHGG
Valid from the 20 at 12:00 until the 21 at 18:00 UTC


201105Z 2012/2118 22008KT 4000 BR BKN004
BECMG 2012/2015 6000 NSW BKN006
PROB40 2014/2018 9000 BKN015
PROB40
TEMPO 2016/2024 24012G22KT 3000 SHRAGSSN BKN008 SCT015CB BKN020
BECMG 2018/2021 9999 BKN015
PROB30
TEMPO 2100/2105 29012G22KT 4000 SHRAGSSN SCT018CB
No reported NOTAMs for that airfield.



MET'MAP, your aeronautical weather chart ! - Copyright ORBIFLY December 2007 - Disclaimer

ORBIFLY MET'MAP TEAM :

Programming & Development : Alexandra Zaïnal
Concept & Development : Baudouin d'Aumeries
Co-Development & Prog : Marc-Olivier Méhu
Technical & hardware support : Manuel Goepfert

Contact : metmap@orbifly.com




SOURCES & CREDITS :

   NOAA